Estación Meteorológica Peña el Pijo (Robertgarden) [ 07/19/24 12:12:06 CEST ]

Fecha Hora Presion(HPa) Temp (°C) Humedad % Rocio (°C) Viento ( m/s) Direccion Lluvia 1Hora(mm) Lluvia 24H(mm) LLuvia Total(mm)
2009-Feb-12 01:01:14 1014.700 1.0 76 -2.8         216.00
2009-Feb-12 02:03:16 1014.100 1.0 76 -2.8         216.00
2009-Feb-12 03:01:11 1013.700 0.3 78 -3.1         216.00
2009-Feb-12 04:01:14 1013.100 -0.4 81 -3.2         216.00
2009-Feb-12 05:01:12 1012.800 -1.0 82 -3.7         216.00
2009-Feb-12 06:01:14 1012.900 -1.1 83 -3.6         216.00
2009-Feb-12 07:01:12 1012.600 -0.9 84 -3.3         216.00
2009-Feb-12 08:01:12 1012.400 -1.1 84 -3.5         216.00
2009-Feb-12 09:01:13 1012.900 -0.9 86 -2.9         216.00
2009-Feb-12 10:01:13 1012.800 5.6 73 1.1         216.00
2009-Feb-12 11:01:10 1012.900 10.3 56 1.9 0.5 N     216.00
2009-Feb-12 12:01:17 1012.600 12.1 48 1.4         216.00
2009-Feb-12 13:01:14 1011.900 14.3 42 1.5         216.00
2009-Feb-12 14:01:13 1010.600 15.3 38 1.0 2.8 NE     216.00
2009-Feb-12 15:01:16 1010.200 16.1 36 0.9         216.00
2009-Feb-12 16:01:13 1010.100 15.8 37 1.0         216.00
2009-Feb-12 17:01:14 1010.200 14.9 39 1.0 1.5 N     216.00
2009-Feb-12 18:01:14 1010.500 11.8 46 0.5         216.00
2009-Feb-12 19:01:12 1011.100 8.8 56 0.5         216.00
2009-Feb-12 20:01:14 1011.300 5.4 67 -0.2         216.00
2009-Feb-12 21:01:16 1011.500 3.5 72 -1.1         216.00
2009-Feb-12 22:01:16 1011.600 2.1 78 -1.4         216.00
2009-Feb-12 23:01:18 1011.800 1.3 80 -1.8         216.00

Temperatura Máxima:16°    Temperatura Mínima:-1°
Presión Máxima:1014.700 Hpa    Presión Mínima:1010.100 Hpa


Volver